createdAt,value
2019-04-06T00:02:16.483Z,46.75
2019-04-06T00:04:45.017Z,52.10
2019-04-06T00:07:13.923Z,68.35
2019-04-06T00:09:42.346Z,51.68
2019-04-06T00:12:10.792Z,46.35
2019-04-06T00:14:39.611Z,49.05
2019-04-06T00:17:08.126Z,49.83
2019-04-06T00:19:36.550Z,51.02
2019-04-06T00:22:05.991Z,47.85
2019-04-06T00:24:34.668Z,45.92
2019-04-06T00:27:03.165Z,52.62
2019-04-06T00:29:31.742Z,47.90
2019-04-06T00:32:07.657Z,50.25
2019-04-06T00:34:36.797Z,42.17
2019-04-06T00:37:05.396Z,42.93
2019-04-06T00:39:33.815Z,54.60
2019-04-06T00:42:02.597Z,57.20
2019-04-06T00:44:31.093Z,42.73
2019-04-06T00:46:59.673Z,48.63
2019-04-06T00:49:28.236Z,43.60
2019-04-06T00:51:56.636Z,48.58
2019-04-06T00:54:25.088Z,46.45
2019-04-06T00:56:54.008Z,44.70
2019-04-06T00:59:22.434Z,50.20
2019-04-06T01:01:50.983Z,45.00
2019-04-06T01:04:19.650Z,41.90
2019-04-06T01:06:48.201Z,45.40
2019-04-06T01:09:16.773Z,46.45
2019-04-06T01:11:45.382Z,52.35
2019-04-06T01:14:13.936Z,42.45
2019-04-06T01:16:42.474Z,41.98
2019-04-06T01:19:11.316Z,46.63
2019-04-06T01:21:40.182Z,47.93
2019-04-06T01:24:08.620Z,50.23
2019-04-06T01:26:37.446Z,43.83
2019-04-06T01:29:05.927Z,45.92
2019-04-06T01:31:34.359Z,51.40
2019-04-06T01:34:03.397Z,46.02
2019-04-06T01:36:31.822Z,45.50
2019-04-06T01:39:00.274Z,44.77
2019-04-06T01:41:28.890Z,44.93
2019-04-06T01:43:57.422Z,43.90
2019-04-06T01:46:25.906Z,42.83
2019-04-06T01:48:54.664Z,47.35
2019-04-06T01:51:23.212Z,41.30
2019-04-06T01:53:51.642Z,44.35
2019-04-06T01:56:20.397Z,43.05
2019-04-06T01:58:48.798Z,44.63
2019-04-06T02:01:34.515Z,41.53
2019-04-06T02:04:03.109Z,42.15
2019-04-06T02:06:31.581Z,45.10
2019-04-06T02:09:00.333Z,43.60
2019-04-06T02:11:28.875Z,41.92
2019-04-06T02:13:57.363Z,44.53
2019-04-06T02:16:27.030Z,40.33
2019-04-06T02:18:55.437Z,39.45
2019-04-06T02:21:23.937Z,38.90
2019-04-06T02:23:52.725Z,44.30
2019-04-06T02:26:30.245Z,43.13
2019-04-06T02:28:51.384Z,43.85
2019-04-06T02:31:24.921Z,40.30
2019-04-06T02:33:55.065Z,41.58
2019-04-06T02:36:41.724Z,43.48
2019-04-06T02:39:28.338Z,44.38
2019-04-06T02:42:00.611Z,45.28
2019-04-06T02:44:29.067Z,47.38
2019-04-06T02:46:57.587Z,46.55
2019-04-06T02:49:26.552Z,43.68
2019-04-06T02:51:55.053Z,38.25
2019-04-06T02:54:23.576Z,45.38
2019-04-06T02:56:52.259Z,44.08
2019-04-06T02:59:20.875Z,42.40
2019-04-06T03:01:51.263Z,44.15
2019-04-06T03:04:20.057Z,43.30
2019-04-06T03:06:48.538Z,50.80
2019-04-06T03:09:17.295Z,45.28
2019-04-06T03:11:46.058Z,44.08
2019-04-06T03:14:14.598Z,46.05
2019-04-06T03:16:44.791Z,40.38
2019-04-06T03:19:13.675Z,48.55
2019-04-06T03:21:42.115Z,40.43
2019-04-06T03:24:10.688Z,43.70
2019-04-06T03:26:39.325Z,49.08
2019-04-06T03:29:07.919Z,42.13
2019-04-06T03:31:36.452Z,43.55
2019-04-06T03:34:05.056Z,44.48
2019-04-06T03:36:33.489Z,45.17
2019-04-06T03:39:01.983Z,40.50
2019-04-06T03:41:30.714Z,42.85
2019-04-06T03:43:59.149Z,42.73
2019-04-06T03:46:27.575Z,42.43
2019-04-06T03:48:56.263Z,45.20
2019-04-06T03:51:24.749Z,46.25
2019-04-06T03:53:53.270Z,43.68
2019-04-06T03:56:22.255Z,50.40
2019-04-06T03:58:52.209Z,43.63
2019-04-06T04:01:20.975Z,41.75
2019-04-06T04:03:49.722Z,41.40
2019-04-06T04:06:18.188Z,43.15
2019-04-06T04:08:46.640Z,40.40
2019-04-06T04:11:15.288Z,42.62
2019-04-06T04:13:43.768Z,47.60
2019-04-06T04:16:12.379Z,41.55
2019-04-06T04:18:40.981Z,43.30
2019-04-06T04:21:09.520Z,45.05
2019-04-06T04:23:37.940Z,44.23
2019-04-06T04:26:06.782Z,44.20
2019-04-06T04:28:35.525Z,39.88
2019-04-06T04:31:04.090Z,42.70
2019-04-06T04:33:32.879Z,47.03
2019-04-06T04:36:01.362Z,47.55
2019-04-06T04:38:29.798Z,40.83
2019-04-06T04:40:58.790Z,39.90
2019-04-06T04:43:27.230Z,45.50
2019-04-06T04:45:55.902Z,43.90
2019-04-06T04:48:24.602Z,42.40
2019-04-06T04:50:53.117Z,47.50
2019-04-06T04:53:21.671Z,45.17
2019-04-06T04:55:50.334Z,44.55
2019-04-06T04:58:18.769Z,46.73
2019-04-06T05:00:47.207Z,39.92
2019-04-06T05:03:15.805Z,41.75
2019-04-06T05:05:44.270Z,48.73
2019-04-06T05:08:12.697Z,43.70
2019-04-06T05:10:41.292Z,41.75
2019-04-06T05:13:09.970Z,47.25
2019-04-06T05:15:56.889Z,42.15
2019-04-06T05:18:26.953Z,44.30
2019-04-06T05:20:55.370Z,48.30
2019-04-06T05:23:24.352Z,46.90
2019-04-06T05:25:52.821Z,47.65
2019-04-06T05:28:21.241Z,42.33
2019-04-06T05:30:50.115Z,45.43
2019-04-06T05:33:18.660Z,41.50
2019-04-06T05:35:47.062Z,46.83
2019-04-06T05:38:15.692Z,48.28
2019-04-06T05:40:44.325Z,41.68
2019-04-06T05:43:12.864Z,47.88
2019-04-06T05:45:41.498Z,48.98
2019-04-06T05:48:09.934Z,42.65
2019-04-06T05:50:38.529Z,44.70
2019-04-06T05:53:07.120Z,45.67
2019-04-06T05:55:35.791Z,43.05
2019-04-06T05:58:06.908Z,41.18
2019-04-06T06:00:35.246Z,45.83
2019-04-06T06:03:04.017Z,43.25
2019-04-06T06:05:32.494Z,49.15
2019-04-06T06:08:01.022Z,42.10
2019-04-06T06:10:29.482Z,38.50
2019-04-06T06:12:57.991Z,41.02
2019-04-06T06:15:26.820Z,43.23
2019-04-06T06:17:55.358Z,45.23
2019-04-06T06:20:23.903Z,45.60
2019-04-06T06:22:52.490Z,43.92
2019-04-06T06:25:21.869Z,51.20
2019-04-06T06:27:50.541Z,43.40
2019-04-06T06:30:19.899Z,47.67
2019-04-06T06:32:48.430Z,42.45
2019-04-06T06:35:17.665Z,42.83
2019-04-06T06:37:46.457Z,41.30
2019-04-06T06:40:15.177Z,39.13
2019-04-06T06:42:43.650Z,43.83
2019-04-06T06:45:12.552Z,43.70
2019-04-06T06:47:41.206Z,48.75
2019-04-06T06:50:09.910Z,45.28
2019-04-06T06:52:39.109Z,44.83
2019-04-06T06:55:07.783Z,40.60
2019-04-06T06:57:37.498Z,45.63
2019-04-06T07:00:06.713Z,44.18
2019-04-06T07:02:35.411Z,40.15
2019-04-06T07:05:05.389Z,43.60
2019-04-06T07:07:34.295Z,43.50
2019-04-06T07:10:05.835Z,41.65
2019-04-06T07:12:32.875Z,43.13
2019-04-06T07:15:01.543Z,44.58
2019-04-06T07:17:30.145Z,43.95
2019-04-06T07:19:58.651Z,43.65
2019-04-06T07:22:27.386Z,40.48
2019-04-06T07:24:55.845Z,47.80
2019-04-06T07:27:24.307Z,52.00
2019-04-06T07:29:53.063Z,50.98
2019-04-06T07:32:21.670Z,46.70
2019-04-06T07:34:50.103Z,45.70
2019-04-06T07:37:18.675Z,45.03
2019-04-06T07:39:47.187Z,44.15
2019-04-06T07:42:15.736Z,44.67
2019-04-06T07:44:44.560Z,44.67
2019-04-06T07:47:13.005Z,47.73
2019-04-06T07:49:41.460Z,44.25
2019-04-06T07:52:10.301Z,45.67
2019-04-06T07:54:38.826Z,46.33
2019-04-06T07:57:07.273Z,45.83
2019-04-06T07:59:36.093Z,46.48
2019-04-06T08:02:04.631Z,42.20
2019-04-06T08:04:33.073Z,42.85
2019-04-06T08:07:01.798Z,42.45
2019-04-06T08:09:30.305Z,44.88
2019-04-06T08:11:59.806Z,44.20
2019-04-06T08:14:28.342Z,44.18
2019-04-06T08:16:56.865Z,44.75
2019-04-06T08:19:25.266Z,46.50
2019-04-06T08:21:53.834Z,45.38
2019-04-06T08:24:22.263Z,43.80
2019-04-06T08:26:50.754Z,40.63
2019-04-06T08:29:19.275Z,41.80
2019-04-06T08:31:47.764Z,42.70
2019-04-06T08:34:16.781Z,38.75
2019-04-06T08:36:45.733Z,40.28
2019-04-06T08:39:14.239Z,38.25
2019-04-06T08:41:42.783Z,45.05
2019-04-06T08:44:11.471Z,39.63
2019-04-06T08:46:40.235Z,40.78
2019-04-06T08:49:08.745Z,43.80
2019-04-06T08:51:37.595Z,45.50
2019-04-06T08:54:06.110Z,41.83
2019-04-06T08:56:34.587Z,40.05
2019-04-06T08:59:11.223Z,45.63
2019-04-06T09:01:33.739Z,43.48
2019-04-06T09:04:02.501Z,37.45
2019-04-06T09:06:31.117Z,43.85
2019-04-06T09:08:59.775Z,41.55
2019-04-06T09:11:28.215Z,44.42
2019-04-06T09:13:57.047Z,41.65
2019-04-06T09:16:25.765Z,42.10
2019-04-06T09:18:54.288Z,42.50
2019-04-06T09:21:23.725Z,39.30
2019-04-06T09:23:52.258Z,40.17
2019-04-06T09:26:28.760Z,47.60
2019-04-06T09:28:59.438Z,39.48
2019-04-06T09:31:27.375Z,40.52
2019-04-06T09:33:56.005Z,45.73
2019-04-06T09:36:24.601Z,42.53
2019-04-06T09:38:53.114Z,44.10
2019-04-06T09:41:21.754Z,40.23
2019-04-06T09:43:50.259Z,43.15
2019-04-06T09:46:23.438Z,42.05
2019-04-06T09:49:08.458Z,43.85
2019-04-06T09:51:38.792Z,40.08
2019-04-06T09:54:14.658Z,39.33
2019-04-06T09:56:57.140Z,42.15
2019-04-06T09:59:42.253Z,44.85
2019-04-06T10:02:12.934Z,40.45
2019-04-06T10:04:58.235Z,39.35
2019-04-06T10:07:34.056Z,41.92
2019-04-06T10:10:13.908Z,41.70
2019-04-06T10:12:50.070Z,44.67
2019-04-06T10:15:31.879Z,40.67
2019-04-06T10:18:07.760Z,43.73
2019-04-06T10:20:40.857Z,45.70
2019-04-06T10:23:25.871Z,45.35
2019-04-06T10:25:55.971Z,39.88
2019-04-06T10:28:31.970Z,44.45
2019-04-06T10:31:02.260Z,41.05
2019-04-06T10:33:35.489Z,42.73
2019-04-06T10:36:11.794Z,48.28
2019-04-06T10:38:42.281Z,43.40
2019-04-06T10:41:21.252Z,42.43
2019-04-06T10:43:54.270Z,39.35
2019-04-06T10:46:33.349Z,41.85
2019-04-06T10:49:03.717Z,42.70
2019-04-06T10:51:46.023Z,43.55
2019-04-06T10:54:25.472Z,43.95
2019-04-06T10:57:12.117Z,39.05
2019-04-06T10:59:42.981Z,40.10
2019-04-06T11:02:29.291Z,41.08
2019-04-06T11:05:11.951Z,37.03
2019-04-06T11:07:45.096Z,40.73
2019-04-06T11:10:15.571Z,38.70
2019-04-06T11:13:02.228Z,39.98
2019-04-06T11:15:32.587Z,38.50
2019-04-06T11:18:19.740Z,37.77
2019-04-06T11:21:07.298Z,37.17
2019-04-06T11:23:53.743Z,38.83
2019-04-06T11:26:24.097Z,39.38
2019-04-06T11:29:10.683Z,33.00
2019-04-06T11:31:57.615Z,36.00
2019-04-06T11:34:36.678Z,38.70
2019-04-06T11:37:23.609Z,36.90
2019-04-06T11:39:53.943Z,41.75
2019-04-06T11:42:24.353Z,41.18
2019-04-06T11:45:11.171Z,40.95
2019-04-06T11:47:41.540Z,37.80
2019-04-06T11:50:23.904Z,39.98
2019-04-06T11:52:54.300Z,37.38
2019-04-06T11:55:27.422Z,34.40
2019-04-06T11:58:10.162Z,44.00
2019-04-06T12:00:43.192Z,37.83
2019-04-06T12:03:19.706Z,39.65
2019-04-06T12:05:52.645Z,36.63
2019-04-06T12:08:32.007Z,37.17
2019-04-06T12:11:18.616Z,43.75
2019-04-06T12:13:51.832Z,36.42
2019-04-06T12:16:22.434Z,38.83
2019-04-06T12:18:58.534Z,40.28
2019-04-06T12:21:31.189Z,38.67
2019-04-06T12:24:17.416Z,36.13
2019-04-06T12:26:56.249Z,42.50
2019-04-06T12:29:38.835Z,36.53
2019-04-06T12:32:25.108Z,35.38
2019-04-06T12:35:10.764Z,36.10
2019-04-06T12:37:43.705Z,35.98
2019-04-06T12:40:14.319Z,35.13
2019-04-06T12:42:44.398Z,38.30
2019-04-06T12:45:14.665Z,34.43
2019-04-06T12:47:45.085Z,36.60
2019-04-06T12:50:18.446Z,36.55
2019-04-06T12:52:51.657Z,35.90
2019-04-06T12:55:21.744Z,35.48
2019-04-06T12:57:55.304Z,30.65
2019-04-06T13:00:31.245Z,35.45
2019-04-06T13:03:08.243Z,34.05
2019-04-06T13:05:44.532Z,34.13
2019-04-06T13:08:30.783Z,32.98
2019-04-06T13:11:02.526Z,29.30
2019-04-06T13:16:27.568Z,41.70
2019-04-06T13:18:57.879Z,32.17
2019-04-06T13:21:44.388Z,29.82
2019-04-06T13:24:20.355Z,29.75
2019-04-06T13:26:50.705Z,32.20
2019-04-06T13:29:33.051Z,31.27
2019-04-06T13:32:12.122Z,31.90
2019-04-06T13:34:42.667Z,26.17
2019-04-06T13:37:18.571Z,31.27
2019-04-06T13:39:54.617Z,30.75
2019-04-06T13:42:24.711Z,33.67
2019-04-06T13:45:00.856Z,33.15
2019-04-06T13:47:36.748Z,34.35
2019-04-06T13:50:19.056Z,27.70
2019-04-06T13:52:51.694Z,31.93
2019-04-06T13:55:25.479Z,28.15
2019-04-06T13:58:07.918Z,27.75
2019-04-06T14:00:38.217Z,32.93
2019-04-06T14:03:14.828Z,28.55
2019-04-06T14:06:01.216Z,27.22
2019-04-06T14:08:31.345Z,30.50
2019-04-06T14:11:17.945Z,29.40
2019-04-06T14:13:59.706Z,26.02
2019-04-06T14:16:30.298Z,27.15
2019-04-06T14:19:16.308Z,31.68
2019-04-06T14:21:55.791Z,25.77
2019-04-06T14:24:34.972Z,27.35
2019-04-06T14:27:05.938Z,29.15
2019-04-06T14:29:45.057Z,25.50
2019-04-06T14:32:29.961Z,26.02
2019-04-06T14:35:16.817Z,28.20
2019-04-06T14:37:59.931Z,26.87
2019-04-06T14:40:30.373Z,28.67
2019-04-06T14:43:09.874Z,27.13
2019-04-06T14:45:46.590Z,28.07
2019-04-06T14:48:16.932Z,27.02
2019-04-06T14:50:58.922Z,31.48
2019-04-06T14:56:17.657Z,27.40
2019-04-06T14:59:00.100Z,31.02
2019-04-06T15:01:43.841Z,28.75
2019-04-06T15:07:11.182Z,32.58
2019-04-06T15:09:37.717Z,28.70
2019-04-06T15:12:07.915Z,27.20
2019-04-06T15:14:54.857Z,29.23
2019-04-06T15:17:28.090Z,32.00
2019-04-06T15:20:07.692Z,29.65
2019-04-06T15:22:53.162Z,26.35
2019-04-06T15:25:28.435Z,26.90
2019-04-06T15:28:14.407Z,25.08
2019-04-06T15:30:56.712Z,26.48
2019-04-06T15:33:29.757Z,26.68
2019-04-06T15:36:12.720Z,24.50
2019-04-06T15:38:43.063Z,26.85
2019-04-06T15:41:29.450Z,27.20
2019-04-06T15:43:59.529Z,24.15
2019-04-06T15:46:45.058Z,29.37
2019-04-06T15:49:31.483Z,26.95
2019-04-06T15:52:11.945Z,31.23
2019-04-06T15:54:45.569Z,27.70
2019-04-06T15:57:15.937Z,26.62
2019-04-06T15:59:58.010Z,29.37
2019-04-06T16:02:34.399Z,31.20
2019-04-06T16:05:07.633Z,28.95
2019-04-06T16:07:43.908Z,26.15
2019-04-06T16:10:14.297Z,28.57
2019-04-06T16:12:59.366Z,27.73
2019-04-06T16:15:35.281Z,26.77
2019-04-06T16:18:08.605Z,27.98
2019-04-06T16:20:38.764Z,30.10
2019-04-06T16:23:09.759Z,27.80
2019-04-06T16:25:46.466Z,29.50
2019-04-06T16:28:35.444Z,27.93
2019-04-06T16:31:17.408Z,25.70
2019-04-06T16:36:20.049Z,24.05
2019-04-06T16:39:06.734Z,24.25
2019-04-06T16:41:53.255Z,27.17
2019-04-06T16:44:26.829Z,25.92
2019-04-06T16:46:57.388Z,25.85
2019-04-06T16:49:27.758Z,26.25
2019-04-06T16:51:57.897Z,25.35
2019-04-06T16:54:28.008Z,25.62
2019-04-06T16:56:58.316Z,24.57
2019-04-06T16:59:44.706Z,25.10
2019-04-06T17:02:31.672Z,25.85
2019-04-06T17:05:01.827Z,23.98
2019-04-06T17:07:35.141Z,27.48
2019-04-06T17:10:22.853Z,26.25
2019-04-06T17:13:09.671Z,24.72
2019-04-06T17:15:40.113Z,24.87
2019-04-06T17:18:19.750Z,25.82
2019-04-06T17:20:52.571Z,21.50
2019-04-06T17:23:23.350Z,25.80
2019-04-06T17:25:56.840Z,24.23
2019-04-06T17:28:42.714Z,22.73
2019-04-06T17:31:24.842Z,22.65
2019-04-06T17:33:55.644Z,23.75
2019-04-06T17:36:44.150Z,24.57
2019-04-06T17:39:17.467Z,25.60
2019-04-06T17:41:54.733Z,23.10
2019-04-06T17:44:25.471Z,23.12
2019-04-06T17:47:12.195Z,23.12
2019-04-06T17:49:45.813Z,25.35
2019-04-06T17:52:33.898Z,24.92
2019-04-06T17:55:14.480Z,25.72
2019-04-06T17:57:57.036Z,22.58
2019-04-06T18:00:27.487Z,25.12
2019-04-06T18:03:13.718Z,24.10
2019-04-06T18:06:02.478Z,24.90
2019-04-06T18:08:49.238Z,24.67
2019-04-06T18:11:25.845Z,30.95
2019-04-06T18:13:54.394Z,29.70
2019-04-06T18:16:24.647Z,32.67
2019-04-06T18:18:53.636Z,37.03
2019-04-06T18:21:22.264Z,30.85
2019-04-06T18:23:50.914Z,34.73
2019-04-06T18:26:19.823Z,39.20
2019-04-06T18:28:48.417Z,33.23
2019-04-06T18:31:20.217Z,32.23
2019-04-06T18:33:49.674Z,36.53
2019-04-06T18:36:18.199Z,35.20
2019-04-06T18:38:56.367Z,29.02
2019-04-06T18:41:24.992Z,28.73
2019-04-06T18:43:53.910Z,32.83
2019-04-06T18:46:22.797Z,31.40
2019-04-06T18:48:51.213Z,31.55
2019-04-06T18:51:20.649Z,32.38
2019-04-06T18:53:49.496Z,29.77
2019-04-06T18:56:17.965Z,31.50
2019-04-06T18:58:46.537Z,35.28
2019-04-06T19:01:15.600Z,36.05
2019-04-06T19:03:44.281Z,35.28
2019-04-06T19:06:12.740Z,34.58
2019-04-06T19:08:41.446Z,35.75
2019-04-06T19:11:10.140Z,33.53
2019-04-06T19:13:39.103Z,27.22
2019-04-06T19:16:07.950Z,27.17
2019-04-06T19:18:36.690Z,32.98
2019-04-06T19:21:07.321Z,35.63
2019-04-06T19:23:36.219Z,41.33
2019-04-06T19:26:04.961Z,35.13
2019-04-06T19:28:33.610Z,49.33
2019-04-06T19:31:02.281Z,37.65
2019-04-06T19:33:30.798Z,37.20
2019-04-06T19:35:59.347Z,37.58
2019-04-06T19:38:27.992Z,37.73
2019-04-06T19:40:56.512Z,32.40
2019-04-06T19:43:25.206Z,35.28
2019-04-06T19:45:54.098Z,33.45
2019-04-06T19:48:22.740Z,37.23
2019-04-06T19:50:51.598Z,33.28
2019-04-06T19:53:20.320Z,32.98
2019-04-06T19:55:48.924Z,34.58
2019-04-06T19:58:17.962Z,36.15
2019-04-06T20:00:47.019Z,39.98
2019-04-06T20:03:16.946Z,40.55
2019-04-06T20:05:45.542Z,36.98
2019-04-06T20:08:15.032Z,39.95
2019-04-06T20:10:43.572Z,41.20
2019-04-06T20:13:12.104Z,38.30
2019-04-06T20:15:41.107Z,48.63
2019-04-06T20:18:10.153Z,48.28
2019-04-06T20:20:38.865Z,56.30
2019-04-06T20:23:07.834Z,55.63
2019-04-06T20:25:37.700Z,53.33
2019-04-06T20:28:07.896Z,54.20
2019-04-06T20:30:38.018Z,64.67
2019-04-06T20:33:07.078Z,57.45
2019-04-06T20:35:36.104Z,51.25
2019-04-06T20:38:05.191Z,54.13
2019-04-06T20:40:33.907Z,60.10
2019-04-06T20:43:02.819Z,56.58
2019-04-06T20:45:31.555Z,65.25
2019-04-06T20:48:00.046Z,55.15
2019-04-06T20:50:28.724Z,61.83
2019-04-06T20:52:58.010Z,61.55
2019-04-06T20:55:27.008Z,64.22
2019-04-06T20:57:57.075Z,70.08
2019-04-06T21:00:26.786Z,61.90
2019-04-06T21:02:55.549Z,68.28
2019-04-06T21:05:24.237Z,56.45
2019-04-06T21:07:53.035Z,53.35
2019-04-06T21:10:22.223Z,56.45
2019-04-06T21:12:50.893Z,58.48
2019-04-06T21:15:21.346Z,66.65
2019-04-06T21:17:50.611Z,61.28
2019-04-06T21:20:19.324Z,60.28
2019-04-06T21:22:49.686Z,58.68
2019-04-06T21:25:19.085Z,60.17
2019-04-06T21:27:51.396Z,61.58
2019-04-06T21:30:21.449Z,60.58
2019-04-06T21:32:51.686Z,62.88
2019-04-06T21:35:21.474Z,60.73
2019-04-06T21:37:50.463Z,67.65
2019-04-06T21:40:19.771Z,66.92
2019-04-06T21:42:48.845Z,62.50
2019-04-06T21:45:17.671Z,69.25
2019-04-06T21:47:46.417Z,67.37
2019-04-06T21:50:16.061Z,66.35
2019-04-06T21:52:45.224Z,66.80
2019-04-06T21:55:14.057Z,66.82
2019-04-06T21:57:43.155Z,63.33
2019-04-06T22:00:14.935Z,78.62
2019-04-06T22:02:43.720Z,61.68
2019-04-06T22:05:12.602Z,70.37
2019-04-06T22:07:48.086Z,69.27
2019-04-06T22:10:14.032Z,70.57
2019-04-06T22:12:43.160Z,76.95
2019-04-06T22:15:13.723Z,74.70
2019-04-06T22:17:42.838Z,83.55
2019-04-06T22:20:12.684Z,75.32
2019-04-06T22:22:41.688Z,74.80
2019-04-06T22:25:12.515Z,77.50
2019-04-06T22:27:41.029Z,78.80
2019-04-06T22:30:11.268Z,82.02
2019-04-06T22:32:40.338Z,78.78
2019-04-06T22:35:09.073Z,82.57
2019-04-06T22:37:38.276Z,81.20
2019-04-06T22:40:08.627Z,79.72
2019-04-06T22:42:37.307Z,76.82
2019-04-06T22:45:10.907Z,79.20
2019-04-06T22:47:39.857Z,78.00
2019-04-06T22:50:09.594Z,81.72
2019-04-06T22:52:38.495Z,82.53
2019-04-06T22:55:07.417Z,75.17
2019-04-06T22:57:36.131Z,77.80
2019-04-06T23:00:10.048Z,79.58
2019-04-06T23:02:46.522Z,80.22
2019-04-06T23:05:19.993Z,83.97
2019-04-06T23:07:49.598Z,77.30
2019-04-06T23:10:18.630Z,83.35
2019-04-06T23:12:47.514Z,72.55
2019-04-06T23:15:16.471Z,82.33
2019-04-06T23:17:45.289Z,87.42
2019-04-06T23:20:14.106Z,82.82
2019-04-06T23:22:42.565Z,88.95
2019-04-06T23:25:11.747Z,88.62
2019-04-06T23:27:40.514Z,85.20
2019-04-06T23:30:09.095Z,79.42
2019-04-06T23:32:37.782Z,90.40
2019-04-06T23:35:07.047Z,92.25
2019-04-06T23:37:35.631Z,90.40
2019-04-06T23:40:06.623Z,87.67
2019-04-06T23:42:35.455Z,88.37
2019-04-06T23:45:05.967Z,84.62
2019-04-06T23:47:35.101Z,87.25
2019-04-06T23:50:06.644Z,88.25
2019-04-06T23:52:35.587Z,82.25
2019-04-06T23:55:07.617Z,87.35
2019-04-06T23:57:36.090Z,82.53
